createdAt,value
2023-05-20T00:02:04.212Z,57.90
2023-05-20T00:04:37.459Z,57.90
2023-05-20T00:07:10.937Z,57.80
2023-05-20T00:09:44.224Z,58.60
2023-05-20T00:12:17.534Z,58.00
2023-05-20T00:14:53.777Z,58.00
2023-05-20T00:17:28.565Z,58.00
2023-05-20T00:20:01.945Z,58.00
2023-05-20T00:22:35.251Z,58.00
2023-05-20T00:25:09.216Z,58.10
2023-05-20T00:27:42.712Z,58.10
2023-05-20T00:30:17.334Z,58.60
2023-05-20T00:32:50.758Z,58.00
2023-05-20T00:35:24.296Z,58.00
2023-05-20T00:37:57.678Z,58.10
2023-05-20T00:40:31.058Z,58.20
2023-05-20T00:43:04.342Z,58.20
2023-05-20T00:45:39.651Z,58.20
2023-05-20T00:48:13.136Z,58.20
2023-05-20T00:50:46.531Z,58.20
2023-05-20T00:53:21.298Z,58.20
2023-05-20T00:55:54.693Z,58.20
2023-05-20T00:58:28.135Z,58.10
2023-05-20T01:01:02.893Z,58.10
2023-05-20T01:03:36.458Z,58.20
2023-05-20T01:06:09.913Z,58.20
2023-05-20T01:08:43.421Z,58.20
2023-05-20T01:11:23.673Z,58.10
2023-05-20T01:14:02.439Z,58.20
2023-05-20T01:16:38.962Z,58.20
2023-05-20T01:19:23.279Z,58.20
2023-05-20T01:21:57.893Z,58.20
2023-05-20T01:24:32.857Z,58.10
2023-05-20T01:27:10.582Z,58.20
2023-05-20T01:29:48.302Z,58.20
2023-05-20T01:32:24.489Z,58.20
2023-05-20T01:34:59.016Z,58.20
2023-05-20T01:37:33.637Z,58.20
2023-05-20T01:40:10.634Z,58.20
2023-05-20T01:42:46.025Z,58.20
2023-05-20T01:45:20.377Z,58.30
2023-05-20T01:47:53.684Z,58.30
2023-05-20T01:50:27.003Z,58.30
2023-05-20T01:53:00.562Z,58.40
2023-05-20T01:55:35.632Z,58.40
2023-05-20T01:58:09.067Z,58.40
2023-05-20T02:00:42.865Z,58.30
2023-05-20T02:03:16.240Z,58.40
2023-05-20T02:05:49.655Z,58.30
2023-05-20T02:08:23.114Z,58.40
2023-05-20T02:10:57.742Z,58.40
2023-05-20T02:13:31.375Z,58.40
2023-05-20T02:16:04.781Z,58.40
2023-05-20T02:18:38.560Z,58.40
2023-05-20T02:21:12.060Z,58.40
2023-05-20T02:23:45.377Z,58.40
2023-05-20T02:26:20.749Z,58.50
2023-05-20T02:28:54.051Z,58.60
2023-05-20T02:31:28.372Z,58.60
2023-05-20T02:34:02.990Z,58.60
2023-05-20T02:36:36.451Z,58.60
2023-05-20T02:39:10.164Z,58.70
2023-05-20T02:41:44.831Z,58.60
2023-05-20T02:44:18.164Z,58.50
2023-05-20T02:46:51.458Z,58.50
2023-05-20T02:49:25.058Z,58.50
2023-05-20T02:51:58.819Z,58.50
2023-05-20T02:54:32.453Z,58.20
2023-05-20T02:57:07.475Z,58.30
2023-05-20T02:59:40.775Z,58.10
2023-05-20T03:02:14.116Z,58.20
2023-05-20T03:04:47.803Z,58.20
2023-05-20T03:07:21.690Z,58.40
2023-05-20T03:09:55.642Z,58.40
2023-05-20T03:12:30.771Z,58.10
2023-05-20T03:15:04.107Z,58.40
2023-05-20T03:17:37.791Z,58.50
2023-05-20T03:20:12.852Z,58.50
2023-05-20T03:22:47.267Z,58.50
2023-05-20T03:25:20.917Z,58.30
2023-05-20T03:27:55.606Z,58.10
2023-05-20T03:30:29.149Z,58.20
2023-05-20T03:33:03.917Z,58.20
2023-05-20T03:35:37.418Z,58.40
2023-05-20T03:38:10.841Z,58.90
2023-05-20T03:40:45.375Z,58.30
2023-05-20T03:43:20.034Z,58.40
2023-05-20T03:45:53.282Z,58.30
2023-05-20T03:48:26.538Z,58.10
2023-05-20T03:51:00.117Z,58.10
2023-05-20T03:53:33.448Z,58.30
2023-05-20T03:56:07.571Z,58.30
2023-05-20T03:58:44.265Z,58.20
2023-05-20T04:01:17.996Z,58.10
2023-05-20T04:03:51.284Z,58.30
2023-05-20T04:06:24.753Z,58.30
2023-05-20T04:08:58.024Z,58.20
2023-05-20T04:11:31.292Z,58.20
2023-05-20T04:14:05.963Z,58.00
2023-05-20T04:16:39.714Z,58.00
2023-05-20T04:19:13.339Z,58.00
2023-05-20T04:21:46.755Z,58.00
2023-05-20T04:24:25.077Z,58.10
2023-05-20T04:26:58.550Z,58.20
2023-05-20T04:29:35.663Z,58.10
2023-05-20T04:32:11.071Z,58.30
2023-05-20T04:34:45.212Z,58.10
2023-05-20T04:37:20.052Z,58.00
2023-05-20T04:39:53.503Z,58.10
2023-05-20T04:42:27.922Z,58.10
2023-05-20T04:45:05.707Z,58.20
2023-05-20T04:47:40.458Z,58.20
2023-05-20T04:50:14.789Z,58.30
2023-05-20T04:52:48.268Z,58.40
2023-05-20T04:55:21.950Z,58.30
2023-05-20T04:57:55.152Z,58.30
2023-05-20T05:00:29.768Z,58.90
2023-05-20T05:03:04.252Z,58.30
2023-05-20T05:05:38.862Z,58.30
2023-05-20T05:08:12.650Z,58.20
2023-05-20T05:10:51.147Z,58.20
2023-05-20T05:13:24.551Z,58.20
2023-05-20T05:16:03.498Z,58.10
2023-05-20T05:18:38.471Z,58.10
2023-05-20T05:21:11.734Z,58.00
2023-05-20T05:23:45.150Z,58.00
2023-05-20T05:26:18.749Z,58.00
2023-05-20T05:28:51.985Z,58.00
2023-05-20T05:31:26.609Z,58.10
2023-05-20T05:34:00.101Z,58.10
2023-05-20T05:36:34.838Z,58.00
2023-05-20T05:39:08.178Z,58.00
2023-05-20T05:41:42.761Z,57.80
2023-05-20T05:44:16.261Z,57.60
2023-05-20T05:46:51.070Z,57.90
2023-05-20T05:49:24.426Z,57.90
2023-05-20T05:51:57.756Z,57.90
2023-05-20T05:54:31.696Z,57.80
2023-05-20T05:57:06.598Z,57.60
2023-05-20T05:59:41.458Z,57.80
2023-05-20T06:02:16.672Z,57.60
2023-05-20T06:04:50.038Z,57.80
2023-05-20T06:07:24.220Z,57.80
2023-05-20T06:09:58.723Z,58.00
2023-05-20T06:12:32.141Z,58.00
2023-05-20T06:15:06.969Z,58.00
2023-05-20T06:17:41.983Z,57.80
2023-05-20T06:20:16.704Z,57.90
2023-05-20T06:22:50.280Z,58.10
2023-05-20T06:25:23.963Z,57.90
2023-05-20T06:27:57.613Z,57.80
2023-05-20T06:30:31.244Z,57.80
2023-05-20T06:33:06.289Z,58.00
2023-05-20T06:35:39.576Z,58.00
2023-05-20T06:38:13.301Z,58.20
2023-05-20T06:40:47.741Z,58.20
2023-05-20T06:43:21.034Z,58.30
2023-05-20T06:46:14.578Z,58.40
2023-05-20T06:48:57.912Z,59.40
2023-05-20T06:51:31.446Z,60.00
2023-05-20T06:54:06.154Z,60.30
2023-05-20T06:56:39.473Z,60.30
2023-05-20T06:59:13.147Z,60.40
2023-05-20T07:01:46.543Z,60.50
2023-05-20T07:04:21.920Z,60.60
2023-05-20T07:06:55.407Z,60.70
2023-05-20T07:09:29.175Z,60.80
2023-05-20T07:12:02.486Z,60.70
2023-05-20T07:14:36.724Z,60.30
2023-05-20T07:17:10.076Z,59.60
2023-05-20T07:19:45.927Z,58.60
2023-05-20T07:22:19.264Z,58.00
2023-05-20T07:25:06.653Z,57.60
2023-05-20T07:27:42.438Z,57.60
2023-05-20T07:30:15.695Z,57.70
2023-05-20T07:32:55.103Z,57.70
2023-05-20T07:35:29.711Z,57.70
2023-05-20T07:38:02.962Z,57.70
2023-05-20T07:40:38.936Z,57.70
2023-05-20T07:43:12.472Z,57.50
2023-05-20T07:45:45.860Z,57.40
2023-05-20T07:48:19.193Z,57.20
2023-05-20T07:50:53.835Z,57.10
2023-05-20T07:53:27.627Z,57.00
2023-05-20T07:56:01.358Z,56.80
2023-05-20T07:58:36.136Z,56.40
2023-05-20T08:01:10.082Z,56.30
2023-05-20T08:03:43.595Z,56.10
2023-05-20T08:06:22.267Z,55.60
2023-05-20T08:08:56.049Z,54.80
2023-05-20T08:11:35.392Z,54.10
2023-05-20T08:14:09.083Z,53.80
2023-05-20T08:16:47.294Z,53.70
2023-05-20T08:19:20.763Z,53.60
2023-05-20T08:21:56.906Z,53.50
2023-05-20T08:24:30.969Z,53.50
2023-05-20T08:27:05.242Z,54.30
2023-05-20T08:29:39.241Z,55.00
2023-05-20T08:32:12.873Z,54.90
2023-05-20T08:34:46.147Z,55.00
2023-05-20T08:37:20.875Z,54.70
2023-05-20T08:39:54.119Z,54.60
2023-05-20T08:42:27.851Z,54.70
2023-05-20T08:45:03.015Z,54.60
2023-05-20T08:47:40.108Z,54.70
2023-05-20T08:50:15.071Z,54.80
2023-05-20T08:52:50.018Z,54.60
2023-05-20T08:55:27.104Z,55.60
2023-05-20T08:58:00.395Z,54.90
2023-05-20T09:00:33.653Z,54.80
2023-05-20T09:03:06.978Z,54.80
2023-05-20T09:05:40.843Z,54.80
2023-05-20T09:08:15.354Z,55.20
2023-05-20T09:10:48.699Z,55.50
2023-05-20T09:13:23.771Z,56.40
2023-05-20T09:15:57.325Z,57.00
2023-05-20T09:18:31.505Z,57.00
2023-05-20T09:21:07.178Z,57.60
2023-05-20T09:23:42.060Z,58.00
2023-05-20T09:26:15.329Z,58.20
2023-05-20T09:28:48.624Z,58.20
2023-05-20T09:31:22.424Z,57.60
2023-05-20T09:33:55.795Z,57.90
2023-05-20T09:36:31.815Z,57.70
2023-05-20T09:39:09.967Z,57.40
2023-05-20T09:41:50.662Z,57.30
2023-05-20T09:44:24.392Z,56.80
2023-05-20T09:46:59.224Z,56.60
2023-05-20T09:49:33.584Z,56.70
2023-05-20T09:52:07.742Z,56.70
2023-05-20T09:54:43.898Z,56.70
2023-05-20T09:57:17.580Z,56.70
2023-05-20T09:59:52.818Z,56.60
2023-05-20T10:02:26.150Z,56.90
2023-05-20T10:05:04.094Z,56.70
2023-05-20T10:08:10.548Z,56.60
2023-05-20T10:10:51.108Z,56.60
2023-05-20T10:13:39.853Z,56.60
2023-05-20T10:16:30.146Z,56.60
2023-05-20T10:19:12.684Z,56.40
2023-05-20T10:21:46.116Z,56.30
2023-05-20T10:24:31.513Z,56.40
2023-05-20T10:27:09.949Z,56.60
2023-05-20T10:29:45.061Z,57.50
2023-05-20T10:32:26.660Z,58.80
2023-05-20T10:35:02.224Z,58.50
2023-05-20T10:37:42.897Z,58.60
2023-05-20T10:40:19.524Z,59.00
2023-05-20T10:42:54.732Z,59.90
2023-05-20T10:45:29.577Z,59.80
2023-05-20T10:48:02.939Z,60.10
2023-05-20T10:50:38.374Z,60.20
2023-05-20T10:53:29.344Z,60.30
2023-05-20T10:56:07.478Z,60.40
2023-05-20T10:58:42.149Z,60.60
2023-05-20T11:01:16.391Z,61.20
2023-05-20T11:03:51.394Z,61.60
2023-05-20T11:06:28.461Z,62.00
2023-05-20T11:09:06.542Z,62.20
2023-05-20T11:11:39.894Z,62.00
2023-05-20T11:14:15.169Z,61.80
2023-05-20T11:16:53.193Z,61.80
2023-05-20T11:19:27.568Z,61.60
2023-05-20T11:22:01.094Z,61.60
2023-05-20T11:24:34.385Z,61.60
2023-05-20T11:27:08.317Z,61.50
2023-05-20T11:29:43.656Z,61.30
2023-05-20T11:32:17.300Z,61.30
2023-05-20T11:34:53.269Z,61.30
2023-05-20T11:37:26.953Z,61.20
2023-05-20T11:40:09.450Z,61.30
2023-05-20T11:42:46.303Z,61.60
2023-05-20T11:45:21.085Z,61.80
2023-05-20T11:48:02.266Z,62.10
2023-05-20T11:50:36.968Z,62.30
2023-05-20T11:53:11.576Z,62.40
2023-05-20T11:55:49.845Z,62.90
2023-05-20T11:58:24.897Z,63.30
2023-05-20T12:01:09.475Z,63.50
2023-05-20T12:03:53.546Z,63.60
2023-05-20T12:06:27.390Z,63.80
2023-05-20T12:09:06.810Z,63.80
2023-05-20T12:11:41.676Z,65.10
2023-05-20T12:14:15.439Z,65.70
2023-05-20T12:16:50.337Z,65.60
2023-05-20T12:19:23.623Z,65.10
2023-05-20T12:21:56.999Z,64.80
2023-05-20T12:24:30.372Z,64.70
2023-05-20T12:27:04.159Z,64.50
2023-05-20T12:29:37.254Z,64.30
2023-05-20T12:32:11.943Z,64.10
2023-05-20T12:34:45.288Z,64.00
2023-05-20T12:37:18.601Z,63.90
2023-05-20T12:39:52.099Z,63.80
2023-05-20T12:42:25.974Z,63.30
2023-05-20T12:44:59.254Z,62.30
2023-05-20T12:47:34.691Z,61.80
2023-05-20T12:50:08.891Z,61.60
2023-05-20T12:52:42.144Z,61.30
2023-05-20T12:55:15.702Z,60.80
2023-05-20T12:57:49.067Z,60.60
2023-05-20T13:00:22.293Z,60.30
2023-05-20T13:02:56.967Z,60.00
2023-05-20T13:05:30.251Z,59.80
2023-05-20T13:08:03.535Z,59.70
2023-05-20T13:10:37.059Z,59.60
2023-05-20T13:13:10.500Z,58.90
2023-05-20T13:15:43.801Z,58.10
2023-05-20T13:18:19.341Z,58.20
2023-05-20T13:20:52.572Z,57.70
2023-05-20T13:23:25.825Z,57.00
2023-05-20T13:25:59.145Z,56.40
2023-05-20T13:28:32.508Z,56.10
2023-05-20T13:31:07.368Z,55.70
2023-05-20T13:33:41.999Z,55.40
2023-05-20T13:36:15.484Z,54.90
2023-05-20T13:38:48.722Z,54.70
2023-05-20T13:41:22.020Z,54.40
2023-05-20T13:43:55.815Z,54.10
2023-05-20T13:46:31.682Z,54.00
2023-05-20T13:49:06.455Z,53.80
2023-05-20T13:51:39.880Z,53.70
2023-05-20T13:54:13.193Z,53.50
2023-05-20T13:56:46.522Z,53.40
2023-05-20T13:59:19.882Z,53.90
2023-05-20T14:01:54.668Z,53.10
2023-05-20T14:04:31.140Z,52.90
2023-05-20T14:07:06.180Z,52.70
2023-05-20T14:09:41.052Z,52.70
2023-05-20T14:12:14.344Z,52.50
2023-05-20T14:14:47.561Z,52.40
2023-05-20T14:17:20.956Z,52.30
2023-05-20T14:19:55.676Z,51.90
2023-05-20T14:22:28.916Z,51.70
2023-05-20T14:25:02.236Z,51.90
2023-05-20T14:27:36.206Z,52.20
2023-05-20T14:30:10.766Z,52.50
2023-05-20T14:32:44.148Z,52.50
2023-05-20T14:35:18.808Z,52.60
2023-05-20T14:37:52.221Z,52.80
2023-05-20T14:40:25.570Z,53.10
2023-05-20T14:42:58.862Z,53.30
2023-05-20T14:45:32.047Z,53.50
2023-05-20T14:48:06.944Z,53.50
2023-05-20T14:50:41.747Z,53.60
2023-05-20T14:53:15.179Z,53.60
2023-05-20T14:55:48.543Z,53.60
2023-05-20T14:58:21.828Z,53.80
2023-05-20T15:00:55.063Z,53.80
2023-05-20T15:03:28.607Z,53.80
2023-05-20T15:06:03.512Z,53.90
2023-05-20T15:08:36.967Z,53.80
2023-05-20T15:11:10.213Z,53.70
2023-05-20T15:13:44.215Z,53.70
2023-05-20T15:16:19.308Z,53.60
2023-05-20T15:18:52.988Z,53.50
2023-05-20T15:21:27.676Z,53.50
2023-05-20T15:24:01.347Z,53.40
2023-05-20T15:26:34.818Z,53.20
2023-05-20T15:29:08.366Z,52.80
2023-05-20T15:31:41.829Z,52.70
2023-05-20T15:34:15.200Z,52.70
2023-05-20T15:36:49.905Z,52.50
2023-05-20T15:39:23.142Z,52.30
2023-05-20T15:41:59.461Z,52.40
2023-05-20T15:44:32.900Z,52.50
2023-05-20T15:47:06.446Z,53.20
2023-05-20T15:49:39.873Z,52.70
2023-05-20T15:52:14.746Z,52.80
2023-05-20T15:54:48.008Z,53.40
2023-05-20T15:57:21.234Z,53.80
2023-05-20T15:59:54.527Z,54.10
2023-05-20T16:02:28.239Z,54.40
2023-05-20T16:05:01.821Z,54.60
2023-05-20T16:07:36.646Z,54.90
2023-05-20T16:10:11.414Z,55.10
2023-05-20T16:12:44.732Z,55.30
2023-05-20T16:15:18.090Z,55.90
2023-05-20T16:17:51.493Z,56.70
2023-05-20T16:20:25.006Z,56.90
2023-05-20T16:22:59.619Z,56.90
2023-05-20T16:25:32.846Z,57.00
2023-05-20T16:28:06.106Z,57.10
2023-05-20T16:30:39.626Z,57.10
2023-05-20T16:33:13.319Z,57.30
2023-05-20T16:35:46.497Z,57.40
2023-05-20T16:38:21.192Z,57.50
2023-05-20T16:40:54.464Z,57.60
2023-05-20T16:43:27.723Z,57.60
2023-05-20T16:46:01.077Z,57.70
2023-05-20T16:48:34.593Z,57.80
2023-05-20T16:51:07.800Z,57.90
2023-05-20T16:53:42.401Z,58.00
2023-05-20T16:56:15.743Z,58.10
2023-05-20T16:58:50.626Z,58.10
2023-05-20T17:01:26.099Z,58.20
2023-05-20T17:03:59.449Z,58.20
2023-05-20T17:06:34.493Z,58.80
2023-05-20T17:09:09.499Z,58.20
2023-05-20T17:11:42.902Z,58.20
2023-05-20T17:14:16.223Z,58.30
2023-05-20T17:16:49.515Z,58.40
2023-05-20T17:19:22.897Z,58.40
2023-05-20T17:21:56.248Z,58.50
2023-05-20T17:24:30.998Z,58.60
2023-05-20T17:27:06.029Z,58.70
2023-05-20T17:29:39.348Z,58.70
2023-05-20T17:32:13.114Z,58.80
2023-05-20T17:34:46.407Z,59.50
2023-05-20T17:37:19.725Z,60.20
2023-05-20T17:39:54.360Z,60.00
2023-05-20T17:42:27.808Z,60.00
2023-05-20T17:45:01.337Z,60.30
2023-05-20T17:47:35.316Z,60.50
2023-05-20T17:50:10.144Z,60.70
2023-05-20T17:52:43.434Z,60.80
2023-05-20T17:55:19.392Z,60.70
2023-05-20T17:57:52.912Z,60.70
2023-05-20T18:00:26.613Z,61.20
2023-05-20T18:03:00.441Z,61.70
2023-05-20T18:05:34.230Z,62.20
2023-05-20T18:08:07.730Z,62.00
2023-05-20T18:10:42.460Z,61.50
2023-05-20T18:13:15.857Z,61.20
2023-05-20T18:15:49.258Z,60.90
2023-05-20T18:18:22.539Z,61.00
2023-05-20T18:20:55.847Z,61.20
2023-05-20T18:23:29.084Z,61.30
2023-05-20T18:26:06.849Z,61.60
2023-05-20T18:28:40.540Z,62.50
2023-05-20T18:31:13.912Z,63.60
2023-05-20T18:33:47.140Z,64.90
2023-05-20T18:36:20.571Z,65.20
2023-05-20T18:38:54.030Z,65.90
2023-05-20T18:41:39.531Z,66.50
2023-05-20T18:44:20.009Z,67.10
2023-05-20T18:46:57.359Z,68.00
2023-05-20T18:49:30.985Z,68.30
2023-05-20T18:52:04.454Z,68.70
2023-05-20T18:54:37.845Z,68.80
2023-05-20T18:57:12.648Z,69.00
2023-05-20T18:59:45.991Z,69.80
2023-05-20T19:02:19.358Z,70.60
2023-05-20T19:04:52.659Z,69.70
2023-05-20T19:07:25.991Z,69.40
2023-05-20T19:09:59.226Z,69.20
2023-05-20T19:12:33.879Z,68.70
2023-05-20T19:15:08.325Z,68.20
2023-05-20T19:17:41.652Z,67.80
2023-05-20T19:20:15.023Z,67.40
2023-05-20T19:22:48.342Z,66.90
2023-05-20T19:25:21.590Z,66.70
2023-05-20T19:27:56.181Z,66.50
2023-05-20T19:30:29.482Z,66.20
2023-05-20T19:33:05.193Z,66.00
2023-05-20T19:35:38.651Z,65.90
2023-05-20T19:38:12.472Z,65.60
2023-05-20T19:40:46.974Z,65.20
2023-05-20T19:43:21.894Z,65.10
2023-05-20T19:45:55.203Z,65.10
2023-05-20T19:48:28.458Z,64.80
2023-05-20T19:51:02.060Z,64.60
2023-05-20T19:53:35.459Z,64.30
2023-05-20T19:56:08.880Z,64.20
2023-05-20T19:58:43.576Z,64.00
2023-05-20T20:01:17.583Z,63.90
2023-05-20T20:03:51.621Z,63.80
2023-05-20T20:06:24.943Z,63.70
2023-05-20T20:08:58.243Z,63.60
2023-05-20T20:11:31.439Z,63.60
2023-05-20T20:14:06.218Z,63.50
2023-05-20T20:16:39.508Z,63.50
2023-05-20T20:19:12.845Z,63.40
2023-05-20T20:21:48.280Z,63.20
2023-05-20T20:24:21.894Z,63.20
2023-05-20T20:26:56.906Z,63.00
2023-05-20T20:29:31.744Z,63.00
2023-05-20T20:32:05.571Z,63.40
2023-05-20T20:34:38.695Z,63.20
2023-05-20T20:37:15.117Z,63.10
2023-05-20T20:39:50.088Z,63.30
2023-05-20T20:42:23.563Z,62.60
2023-05-20T20:44:58.189Z,62.30
2023-05-20T20:47:31.686Z,62.30
2023-05-20T20:50:05.205Z,62.50
2023-05-20T20:52:39.789Z,62.20
2023-05-20T20:55:13.386Z,62.30
2023-05-20T20:57:48.013Z,62.40
2023-05-20T21:00:24.414Z,62.50
2023-05-20T21:02:57.692Z,62.50
2023-05-20T21:05:31.083Z,62.20
2023-05-20T21:08:04.765Z,62.20
2023-05-20T21:10:38.203Z,62.00
2023-05-20T21:13:11.531Z,61.90
2023-05-20T21:15:46.508Z,62.40
2023-05-20T21:18:21.878Z,61.80
2023-05-20T21:20:56.569Z,61.60
2023-05-20T21:23:29.857Z,61.50
2023-05-20T21:26:03.137Z,61.50
2023-05-20T21:28:36.502Z,61.30
2023-05-20T21:31:11.337Z,61.20
2023-05-20T21:33:44.654Z,61.30
2023-05-20T21:36:18.094Z,61.50
2023-05-20T21:38:51.378Z,61.70
2023-05-20T21:41:24.693Z,61.80
2023-05-20T21:43:58.017Z,61.90
2023-05-20T21:46:32.632Z,62.00
2023-05-20T21:49:05.985Z,62.10
2023-05-20T21:51:39.244Z,62.20
2023-05-20T21:54:12.474Z,62.20
2023-05-20T21:56:45.696Z,62.30
2023-05-20T21:59:18.989Z,62.30
2023-05-20T22:01:54.372Z,62.30
2023-05-20T22:04:28.611Z,62.50
2023-05-20T22:07:02.006Z,62.50
2023-05-20T22:09:35.483Z,62.60
2023-05-20T22:12:11.125Z,62.60
2023-05-20T22:14:44.436Z,63.00
2023-05-20T22:17:19.148Z,63.00
2023-05-20T22:19:53.642Z,62.80
2023-05-20T22:22:27.229Z,62.70
2023-05-20T22:25:00.563Z,62.70
2023-05-20T22:27:34.980Z,62.70
2023-05-20T22:30:09.986Z,62.70
2023-05-20T22:32:44.993Z,62.80
2023-05-20T22:35:18.423Z,62.70
2023-05-20T22:37:51.970Z,62.80
2023-05-20T22:40:25.231Z,62.80
2023-05-20T22:42:58.480Z,62.90
2023-05-20T22:45:31.751Z,63.00
2023-05-20T22:48:06.826Z,63.00
2023-05-20T22:50:40.286Z,63.10
2023-05-20T22:53:13.591Z,63.10
2023-05-20T22:55:47.021Z,63.10
2023-05-20T22:58:20.318Z,63.20
2023-05-20T23:00:53.737Z,63.20
2023-05-20T23:03:29.497Z,63.20
2023-05-20T23:06:02.930Z,63.30
2023-05-20T23:08:36.150Z,63.30
2023-05-20T23:11:09.369Z,63.40
2023-05-20T23:13:42.618Z,63.40
2023-05-20T23:16:16.019Z,63.50
2023-05-20T23:18:50.626Z,63.50
2023-05-20T23:21:24.231Z,63.40
2023-05-20T23:23:57.521Z,63.50
2023-05-20T23:26:31.532Z,63.40
2023-05-20T23:29:04.953Z,63.40
2023-05-20T23:31:38.445Z,63.40
2023-05-20T23:34:13.129Z,63.50
2023-05-20T23:36:46.766Z,63.40
2023-05-20T23:39:19.994Z,63.50
2023-05-20T23:41:53.273Z,63.40
2023-05-20T23:44:26.547Z,63.40
2023-05-20T23:47:00.876Z,63.40
2023-05-20T23:49:35.506Z,63.40
2023-05-20T23:52:08.828Z,63.40
2023-05-20T23:54:42.072Z,63.40
2023-05-20T23:57:16.119Z,63.30
2023-05-20T23:59:49.753Z,63.40
